createdAt,value
2023-04-15T00:01:47.091Z,1.38
2023-04-15T00:04:13.590Z,1.23
2023-04-15T00:06:40.070Z,1.28
2023-04-15T00:09:06.457Z,1.32
2023-04-15T00:11:32.852Z,1.40
2023-04-15T00:13:59.206Z,1.36
2023-04-15T00:16:26.923Z,1.37
2023-04-15T00:18:53.309Z,1.46
2023-04-15T00:21:19.642Z,1.55
2023-04-15T00:23:46.020Z,1.62
2023-04-15T00:26:12.369Z,1.43
2023-04-15T00:28:38.744Z,1.64
2023-04-15T00:31:05.116Z,1.78
2023-04-15T00:33:31.554Z,1.62
2023-04-15T00:35:57.944Z,1.67
2023-04-15T00:38:24.300Z,1.56
2023-04-15T00:40:50.678Z,1.66
2023-04-15T00:43:17.059Z,1.57
2023-04-15T00:45:43.498Z,1.68
2023-04-15T00:48:09.903Z,1.64
2023-04-15T00:50:36.295Z,1.53
2023-04-15T00:53:02.678Z,1.47
2023-04-15T00:55:29.044Z,1.61
2023-04-15T00:57:55.384Z,1.51
2023-04-15T01:00:21.759Z,1.30
2023-04-15T01:02:48.237Z,1.38
2023-04-15T01:05:14.660Z,1.17
2023-04-15T01:07:40.997Z,1.19
2023-04-15T01:10:07.374Z,1.37
2023-04-15T01:12:33.753Z,1.24
2023-04-15T01:15:00.257Z,1.20
2023-04-15T01:17:26.690Z,1.10
2023-04-15T01:19:53.077Z,1.21
2023-04-15T01:22:19.409Z,1.35
2023-04-15T01:24:45.738Z,1.29
2023-04-15T01:27:12.104Z,1.21
2023-04-15T01:29:38.450Z,1.26
2023-04-15T01:32:04.801Z,1.54
2023-04-15T01:34:31.817Z,1.41
2023-04-15T01:36:58.875Z,1.53
2023-04-15T01:39:25.257Z,1.51
2023-04-15T01:41:51.640Z,1.62
2023-04-15T01:44:18.021Z,1.51
2023-04-15T01:46:44.502Z,1.49
2023-04-15T01:49:10.869Z,1.47
2023-04-15T01:51:37.197Z,1.61
2023-04-15T01:54:03.578Z,1.64
2023-04-15T01:56:29.926Z,1.75
2023-04-15T01:58:56.297Z,1.59
2023-04-15T02:01:23.803Z,1.60
2023-04-15T02:03:50.316Z,1.63
2023-04-15T02:06:16.762Z,1.88
2023-04-15T02:08:43.113Z,1.87
2023-04-15T02:11:09.476Z,1.67
2023-04-15T02:13:35.812Z,1.65
2023-04-15T02:16:02.195Z,1.74
2023-04-15T02:18:28.568Z,1.56
2023-04-15T02:20:55.096Z,1.49
2023-04-15T02:23:21.461Z,1.59
2023-04-15T02:25:53.486Z,1.52
2023-04-15T02:28:20.641Z,1.31
2023-04-15T02:30:47.015Z,1.27
2023-04-15T02:33:13.416Z,1.30
2023-04-15T02:35:39.814Z,1.16
2023-04-15T02:38:06.169Z,1.27
2023-04-15T02:40:34.898Z,1.10
2023-04-15T02:43:01.259Z,1.15
2023-04-15T02:45:27.620Z,1.09
2023-04-15T02:47:54.020Z,1.13
2023-04-15T02:50:20.383Z,1.17
2023-04-15T02:52:46.761Z,1.11
2023-04-15T02:55:13.136Z,1.06
2023-04-15T02:57:39.491Z,0.95
2023-04-15T03:00:05.863Z,1.11
2023-04-15T03:02:32.338Z,1.12
2023-04-15T03:04:58.826Z,1.08
2023-04-15T03:07:25.174Z,1.06
2023-04-15T03:09:51.570Z,0.98
2023-04-15T03:12:17.962Z,1.16
2023-04-15T03:14:44.313Z,1.10
2023-04-15T03:17:10.855Z,1.03
2023-04-15T03:19:37.267Z,1.05
2023-04-15T03:22:03.609Z,1.10
2023-04-15T03:24:29.994Z,1.03
2023-04-15T03:26:56.335Z,1.18
2023-04-15T03:29:22.717Z,1.16
2023-04-15T03:31:49.067Z,1.18
2023-04-15T03:34:15.453Z,1.14
2023-04-15T03:36:41.786Z,1.15
2023-04-15T03:39:08.134Z,1.26
2023-04-15T03:41:34.471Z,1.18
2023-04-15T03:44:00.838Z,1.09
2023-04-15T03:46:27.277Z,1.28
2023-04-15T03:48:53.632Z,1.28
2023-04-15T03:51:20.003Z,1.15
2023-04-15T03:53:46.449Z,1.15
2023-04-15T03:56:12.816Z,1.19
2023-04-15T03:58:39.151Z,1.12
2023-04-15T04:01:05.520Z,1.15
2023-04-15T04:03:31.967Z,1.05
2023-04-15T04:05:58.405Z,1.07
2023-04-15T04:08:24.770Z,1.08
2023-04-15T04:10:51.181Z,0.99
2023-04-15T04:13:17.588Z,1.26
2023-04-15T04:15:44.028Z,1.15
2023-04-15T04:18:10.420Z,1.19
2023-04-15T04:20:36.787Z,1.12
2023-04-15T04:23:03.165Z,0.99
2023-04-15T04:25:29.567Z,1.19
2023-04-15T04:27:55.934Z,1.12
2023-04-15T04:30:22.320Z,1.13
2023-04-15T04:32:48.751Z,1.11
2023-04-15T04:35:15.178Z,1.20
2023-04-15T04:37:41.546Z,1.06
2023-04-15T04:40:07.898Z,1.14
2023-04-15T04:42:34.231Z,1.30
2023-04-15T04:45:00.608Z,1.30
2023-04-15T04:47:27.011Z,1.17
2023-04-15T04:49:53.410Z,1.18
2023-04-15T04:52:19.802Z,1.07
2023-04-15T04:54:46.207Z,1.18
2023-04-15T04:57:12.542Z,1.26
2023-04-15T04:59:38.935Z,1.04
2023-04-15T05:02:05.367Z,1.11
2023-04-15T05:04:31.830Z,1.11
2023-04-15T05:06:58.217Z,1.12
2023-04-15T05:09:24.558Z,1.20
2023-04-15T05:11:50.902Z,1.29
2023-04-15T05:14:17.290Z,1.19
2023-04-15T05:16:43.646Z,1.29
2023-04-15T05:19:09.978Z,1.26
2023-04-15T05:21:38.235Z,2.41
2023-04-15T05:24:05.727Z,1.58
2023-04-15T05:26:32.063Z,1.05
2023-04-15T05:28:58.520Z,2.10
2023-04-15T05:31:25.151Z,2.40
2023-04-15T05:33:51.583Z,2.19
2023-04-15T05:36:17.996Z,2.26
2023-04-15T05:38:44.387Z,3.24
2023-04-15T05:41:10.744Z,5.91
2023-04-15T05:43:37.086Z,46.32
2023-04-15T05:46:03.469Z,63.92
2023-04-15T05:48:29.893Z,12.29
2023-04-15T05:50:56.316Z,1.33
2023-04-15T05:53:22.675Z,2.94
2023-04-15T05:55:49.058Z,10.49
2023-04-15T05:58:15.425Z,1.41
2023-04-15T06:00:41.801Z,2.90
2023-04-15T06:03:08.298Z,2.12
2023-04-15T06:05:34.787Z,1.42
2023-04-15T06:08:01.156Z,1.22
2023-04-15T06:10:27.498Z,1.28
2023-04-15T06:12:53.881Z,1.10
2023-04-15T06:15:20.264Z,1.23
2023-04-15T06:17:46.686Z,1.41
2023-04-15T06:20:13.083Z,1.46
2023-04-15T06:22:39.457Z,1.37
2023-04-15T06:25:05.873Z,1.21
2023-04-15T06:27:32.261Z,1.26
2023-04-15T06:29:58.661Z,1.05
2023-04-15T06:32:25.045Z,1.12
2023-04-15T06:34:51.390Z,1.05
2023-04-15T06:37:17.725Z,1.18
2023-04-15T06:39:44.055Z,1.22
2023-04-15T06:42:10.430Z,1.13
2023-04-15T06:44:36.796Z,1.21
2023-04-15T06:47:03.133Z,1.40
2023-04-15T06:49:29.472Z,1.45
2023-04-15T06:51:55.839Z,1.39
2023-04-15T06:54:22.233Z,1.28
2023-04-15T06:56:48.624Z,1.51
2023-04-15T06:59:14.973Z,1.54
2023-04-15T07:01:41.310Z,1.30
2023-04-15T07:04:07.760Z,1.21
2023-04-15T07:06:34.175Z,0.99
2023-04-15T07:09:00.852Z,0.95
2023-04-15T07:11:27.404Z,1.04
2023-04-15T07:13:53.785Z,1.02
2023-04-15T07:16:20.190Z,1.17
2023-04-15T07:18:46.578Z,1.02
2023-04-15T07:21:12.996Z,1.07
2023-04-15T07:23:39.352Z,1.39
2023-04-15T07:26:05.731Z,1.00
2023-04-15T07:28:32.111Z,1.13
2023-04-15T07:30:58.495Z,1.13
2023-04-15T07:33:24.890Z,1.04
2023-04-15T07:35:51.282Z,1.12
2023-04-15T07:38:17.640Z,1.17
2023-04-15T07:40:44.029Z,1.06
2023-04-15T07:43:10.383Z,1.08
2023-04-15T07:45:36.759Z,1.20
2023-04-15T07:48:03.136Z,1.10
2023-04-15T07:50:29.568Z,1.23
2023-04-15T07:52:55.939Z,0.99
2023-04-15T07:55:22.284Z,1.07
2023-04-15T07:57:48.666Z,1.02
2023-04-15T08:00:15.000Z,0.93
2023-04-15T08:02:41.578Z,0.92
2023-04-15T08:05:08.194Z,1.02
2023-04-15T08:07:34.570Z,0.80
2023-04-15T08:10:00.935Z,0.72
2023-04-15T08:12:27.299Z,0.71
2023-04-15T08:14:53.684Z,0.61
2023-04-15T08:17:20.053Z,0.61
2023-04-15T08:19:46.439Z,0.52
2023-04-15T08:22:17.873Z,0.74
2023-04-15T08:24:44.907Z,0.61
2023-04-15T08:27:11.274Z,0.59
2023-04-15T08:29:37.622Z,0.73
2023-04-15T08:32:03.992Z,0.72
2023-04-15T08:34:30.340Z,0.73
2023-04-15T08:36:56.726Z,0.83
2023-04-15T08:39:23.074Z,0.82
2023-04-15T08:41:49.417Z,0.72
2023-04-15T08:44:15.755Z,0.76
2023-04-15T08:46:42.225Z,0.79
2023-04-15T08:49:08.623Z,0.69
2023-04-15T08:51:35.022Z,0.75
2023-04-15T08:54:01.496Z,0.70
2023-04-15T08:56:27.936Z,0.58
2023-04-15T08:58:54.392Z,0.63
2023-04-15T09:01:20.771Z,0.59
2023-04-15T09:03:47.212Z,0.73
2023-04-15T09:06:13.764Z,0.89
2023-04-15T09:08:40.146Z,0.72
2023-04-15T09:11:06.543Z,0.54
2023-04-15T09:13:32.892Z,0.55
2023-04-15T09:15:59.261Z,0.57
2023-04-15T09:18:25.624Z,0.68
2023-04-15T09:20:51.971Z,0.66
2023-04-15T09:23:18.307Z,0.64
2023-04-15T09:25:44.684Z,0.58
2023-04-15T09:28:11.038Z,0.53
2023-04-15T09:30:37.458Z,0.68
2023-04-15T09:33:03.894Z,0.64
2023-04-15T09:35:30.293Z,0.59
2023-04-15T09:37:56.717Z,0.66
2023-04-15T09:40:23.065Z,0.63
2023-04-15T09:42:50.331Z,0.56
2023-04-15T09:45:16.723Z,0.65
2023-04-15T09:47:43.175Z,0.54
2023-04-15T09:50:09.540Z,0.54
2023-04-15T09:52:35.871Z,0.54
2023-04-15T09:55:02.226Z,0.59
2023-04-15T09:57:28.595Z,0.52
2023-04-15T09:59:54.938Z,0.52
2023-04-15T10:02:21.397Z,0.53
2023-04-15T10:04:47.871Z,0.59
2023-04-15T10:07:14.227Z,0.48
2023-04-15T10:09:40.597Z,0.58
2023-04-15T10:12:06.951Z,0.59
2023-04-15T10:14:33.287Z,0.51
2023-04-15T10:16:59.621Z,0.70
2023-04-15T10:19:25.997Z,0.48
2023-04-15T10:21:52.336Z,0.44
2023-04-15T10:24:18.670Z,0.43
2023-04-15T10:26:45.005Z,0.41
2023-04-15T10:29:11.397Z,0.37
2023-04-15T10:31:37.767Z,0.36
2023-04-15T10:34:04.476Z,0.42
2023-04-15T10:36:30.894Z,0.37
2023-04-15T10:38:57.264Z,0.35
2023-04-15T10:41:23.606Z,0.43
2023-04-15T10:43:49.978Z,0.49
2023-04-15T10:46:16.336Z,0.39
2023-04-15T10:48:42.727Z,0.51
2023-04-15T10:51:09.108Z,0.52
2023-04-15T10:53:35.442Z,0.40
2023-04-15T10:56:01.840Z,0.30
2023-04-15T10:58:28.204Z,0.31
2023-04-15T11:00:54.536Z,0.26
2023-04-15T11:03:21.018Z,0.19
2023-04-15T11:05:47.487Z,0.33
2023-04-15T11:08:13.910Z,1.17
2023-04-15T11:10:40.267Z,0.73
2023-04-15T11:13:06.629Z,0.51
2023-04-15T11:15:33.028Z,0.62
2023-04-15T11:17:59.489Z,1.15
2023-04-15T11:20:25.940Z,0.77
2023-04-15T11:22:52.281Z,0.65
2023-04-15T11:25:18.670Z,0.90
2023-04-15T11:27:45.024Z,0.70
2023-04-15T11:30:11.375Z,0.50
2023-04-15T11:32:37.786Z,0.98
2023-04-15T11:35:04.178Z,0.84
2023-04-15T11:37:30.624Z,0.90
2023-04-15T11:39:57.012Z,0.83
2023-04-15T11:42:23.360Z,0.66
2023-04-15T11:44:49.701Z,0.71
2023-04-15T11:47:16.083Z,0.83
2023-04-15T11:49:42.446Z,0.70
2023-04-15T11:52:08.826Z,0.59
2023-04-15T11:54:35.217Z,0.77
2023-04-15T11:57:01.601Z,0.59
2023-04-15T11:59:38.880Z,0.84
2023-04-15T12:02:11.210Z,0.46
2023-04-15T12:04:37.845Z,0.44
2023-04-15T12:07:04.390Z,0.46
2023-04-15T12:09:32.434Z,0.38
2023-04-15T12:11:58.909Z,0.42
2023-04-15T12:14:25.311Z,0.33
2023-04-15T12:16:51.946Z,0.38
2023-04-15T12:19:19.033Z,0.38
2023-04-15T12:21:45.797Z,0.44
2023-04-15T12:24:12.192Z,0.55
2023-04-15T12:26:38.552Z,0.49
2023-04-15T12:29:04.936Z,0.56
2023-04-15T12:31:31.300Z,0.44
2023-04-15T12:33:57.684Z,0.48
2023-04-15T12:36:24.100Z,0.49
2023-04-15T12:38:50.454Z,0.56
2023-04-15T12:41:16.832Z,0.54
2023-04-15T12:43:43.213Z,0.47
2023-04-15T12:46:09.560Z,0.48
2023-04-15T12:48:35.951Z,1.31
2023-04-15T12:51:03.930Z,1.09
2023-04-15T12:53:31.932Z,0.42
2023-04-15T12:55:58.292Z,0.42
2023-04-15T12:58:24.621Z,0.43
2023-04-15T13:00:50.971Z,1.58
2023-04-15T13:03:17.413Z,3.79
2023-04-15T13:05:43.862Z,0.61
2023-04-15T13:08:10.266Z,0.56
2023-04-15T13:10:36.639Z,0.71
2023-04-15T13:13:02.974Z,0.72
2023-04-15T13:15:29.307Z,0.61
2023-04-15T13:17:55.714Z,0.83
2023-04-15T13:20:22.125Z,0.64
2023-04-15T13:22:48.468Z,0.41
2023-04-15T13:25:14.795Z,0.59
2023-04-15T13:27:41.126Z,0.40
2023-04-15T13:30:07.450Z,0.44
2023-04-15T13:32:33.828Z,0.38
2023-04-15T13:35:00.221Z,0.49
2023-04-15T13:37:26.559Z,0.54
2023-04-15T13:39:52.964Z,6.90
2023-04-15T13:42:19.396Z,0.69
2023-04-15T13:44:45.760Z,0.53
2023-04-15T13:47:12.108Z,0.44
2023-04-15T13:49:38.452Z,3.06
2023-04-15T13:52:04.837Z,1.08
2023-04-15T13:54:37.805Z,0.33
2023-04-15T13:57:04.506Z,0.33
2023-04-15T13:59:30.892Z,0.27
2023-04-15T14:01:57.424Z,0.26
2023-04-15T14:04:24.009Z,0.34
2023-04-15T14:06:50.404Z,0.26
2023-04-15T14:09:16.781Z,0.24
2023-04-15T14:11:43.165Z,0.22
2023-04-15T14:14:09.517Z,0.21
2023-04-15T14:16:35.924Z,0.25
2023-04-15T14:19:02.514Z,0.28
2023-04-15T14:21:29.107Z,0.30
2023-04-15T14:23:55.499Z,0.28
2023-04-15T14:26:21.890Z,0.28
2023-04-15T14:28:48.232Z,0.26
2023-04-15T14:31:14.611Z,0.28
2023-04-15T14:33:41.121Z,0.28
2023-04-15T14:36:07.598Z,0.28
2023-04-15T14:38:33.944Z,0.31
2023-04-15T14:41:00.324Z,0.36
2023-04-15T14:43:26.716Z,0.41
2023-04-15T14:45:53.132Z,0.51
2023-04-15T14:48:19.549Z,0.48
2023-04-15T14:50:45.927Z,0.58
2023-04-15T14:53:12.264Z,0.55
2023-04-15T14:55:38.666Z,5.13
2023-04-15T14:58:05.057Z,4.00
2023-04-15T15:00:31.398Z,0.56
2023-04-15T15:02:57.826Z,0.52
2023-04-15T15:05:24.287Z,0.57
2023-04-15T15:07:50.665Z,0.55
2023-04-15T15:10:16.998Z,0.64
2023-04-15T15:13:00.221Z,4.16
2023-04-15T15:15:29.115Z,11.05
2023-04-15T15:17:55.767Z,7.80
2023-04-15T15:20:22.874Z,4.28
2023-04-15T15:22:49.266Z,1.60
2023-04-15T15:25:15.618Z,2.56
2023-04-15T15:27:41.983Z,1.90
2023-04-15T15:30:08.309Z,0.62
2023-04-15T15:32:34.722Z,2.47
2023-04-15T15:35:01.094Z,2.23
2023-04-15T15:37:27.477Z,0.68
2023-04-15T15:39:53.829Z,1.17
2023-04-15T15:42:20.192Z,1.52
2023-04-15T15:44:46.537Z,0.65
2023-04-15T15:47:12.884Z,0.58
2023-04-15T15:49:39.247Z,0.84
2023-04-15T15:52:05.601Z,1.27
2023-04-15T15:54:31.970Z,0.78
2023-04-15T15:56:58.387Z,0.80
2023-04-15T15:59:24.773Z,0.76
2023-04-15T16:01:51.224Z,1.03
2023-04-15T16:04:17.728Z,1.16
2023-04-15T16:06:44.214Z,1.25
2023-04-15T16:09:10.618Z,1.40
2023-04-15T16:11:36.969Z,1.17
2023-04-15T16:14:03.353Z,2.62
2023-04-15T16:16:29.805Z,6.78
2023-04-15T16:18:56.238Z,4.84
2023-04-15T16:21:22.611Z,0.78
2023-04-15T16:23:48.994Z,0.71
2023-04-15T16:26:15.395Z,0.79
2023-04-15T16:28:41.778Z,1.05
2023-04-15T16:31:08.114Z,1.03
2023-04-15T16:33:34.491Z,0.89
2023-04-15T16:36:00.885Z,0.97
2023-04-15T16:38:27.257Z,1.04
2023-04-15T16:40:53.586Z,0.86
2023-04-15T16:43:19.929Z,1.09
2023-04-15T16:45:46.294Z,2.94
2023-04-15T16:48:12.669Z,8.18
2023-04-15T16:50:39.056Z,8.90
2023-04-15T16:53:05.423Z,6.27
2023-04-15T16:55:31.818Z,3.11
2023-04-15T16:58:02.201Z,2.91
2023-04-15T17:00:29.927Z,3.71
2023-04-15T17:02:56.492Z,4.52
2023-04-15T17:05:22.991Z,6.07
2023-04-15T17:07:49.344Z,2.87
2023-04-15T17:10:15.708Z,2.30
2023-04-15T17:12:42.114Z,3.02
2023-04-15T17:15:08.474Z,2.38
2023-04-15T17:17:34.854Z,1.89
2023-04-15T17:20:01.254Z,1.72
2023-04-15T17:22:27.629Z,1.65
2023-04-15T17:24:53.997Z,2.48
2023-04-15T17:27:20.322Z,2.17
2023-04-15T17:29:46.695Z,1.30
2023-04-15T17:32:13.100Z,1.34
2023-04-15T17:34:49.951Z,1.50
2023-04-15T17:37:17.585Z,1.52
2023-04-15T17:39:44.009Z,1.46
2023-04-15T17:42:10.400Z,1.50
2023-04-15T17:44:36.790Z,1.19
2023-04-15T17:47:03.171Z,1.18
2023-04-15T17:49:29.561Z,0.98
2023-04-15T17:51:55.919Z,1.38
2023-04-15T17:54:22.251Z,1.60
2023-04-15T17:56:48.584Z,1.26
2023-04-15T17:59:14.919Z,0.70
2023-04-15T18:01:41.355Z,0.71
2023-04-15T18:04:08.182Z,0.64
2023-04-15T18:06:34.869Z,0.79
2023-04-15T18:09:01.204Z,0.70
2023-04-15T18:11:27.546Z,0.79
2023-04-15T18:13:53.878Z,0.85
2023-04-15T18:16:20.263Z,0.89
2023-04-15T18:18:46.690Z,0.89
2023-04-15T18:21:13.843Z,1.11
2023-04-15T18:23:40.374Z,1.23
2023-04-15T18:26:06.732Z,1.51
2023-04-15T18:28:33.059Z,1.13
2023-04-15T18:30:59.452Z,0.96
2023-04-15T18:33:25.844Z,1.02
2023-04-15T18:35:52.243Z,1.23
2023-04-15T18:38:18.632Z,1.17
2023-04-15T18:40:45.014Z,1.21
2023-04-15T18:43:11.378Z,1.30
2023-04-15T18:45:37.781Z,1.46
2023-04-15T18:48:04.265Z,1.16
2023-04-15T18:50:30.702Z,1.36
2023-04-15T18:52:57.092Z,1.37
2023-04-15T18:55:23.451Z,1.25
2023-04-15T18:57:52.935Z,1.55
2023-04-15T19:00:19.645Z,1.29
2023-04-15T19:02:46.080Z,1.44
2023-04-15T19:05:12.473Z,2.22
2023-04-15T19:07:38.811Z,2.33
2023-04-15T19:10:05.196Z,2.37
2023-04-15T19:12:31.563Z,2.17
2023-04-15T19:14:57.946Z,1.94
2023-04-15T19:17:24.336Z,2.13
2023-04-15T19:19:50.693Z,2.02
2023-04-15T19:22:17.079Z,1.99
2023-04-15T19:24:43.499Z,2.15
2023-04-15T19:27:09.844Z,2.03
2023-04-15T19:29:36.295Z,11.88
2023-04-15T19:32:02.674Z,22.35
2023-04-15T19:34:29.012Z,7.19
2023-04-15T19:36:55.460Z,19.54
2023-04-15T19:39:21.813Z,5.68
2023-04-15T19:41:48.203Z,4.04
2023-04-15T19:44:14.611Z,3.36
2023-04-15T19:46:41.068Z,2.19
2023-04-15T19:49:07.551Z,2.36
2023-04-15T19:51:34.070Z,2.60
2023-04-15T19:54:00.485Z,2.63
2023-04-15T19:56:26.888Z,3.89
2023-04-15T19:58:53.241Z,3.89
2023-04-15T20:01:19.664Z,4.35
2023-04-15T20:03:46.208Z,4.66
2023-04-15T20:06:12.767Z,3.68
2023-04-15T20:08:39.149Z,3.41
2023-04-15T20:11:05.557Z,3.39
2023-04-15T20:13:32.147Z,3.02
2023-04-15T20:15:58.597Z,2.73
2023-04-15T20:18:24.955Z,2.82
2023-04-15T20:20:51.410Z,2.89
2023-04-15T20:23:17.773Z,3.25
2023-04-15T20:25:44.195Z,4.06
2023-04-15T20:28:10.580Z,8.40
2023-04-15T20:30:36.919Z,10.26
2023-04-15T20:33:03.409Z,9.86
2023-04-15T20:35:29.815Z,4.77
2023-04-15T20:37:56.231Z,3.76
2023-04-15T20:40:22.581Z,3.28
2023-04-15T20:42:48.962Z,3.01
2023-04-15T20:45:15.504Z,3.07
2023-04-15T20:47:41.919Z,2.37
2023-04-15T20:50:08.368Z,2.48
2023-04-15T20:52:34.756Z,2.43
2023-04-15T20:55:01.116Z,2.71
2023-04-15T20:57:27.525Z,2.54
2023-04-15T20:59:53.931Z,2.73
2023-04-15T21:02:20.549Z,3.07
2023-04-15T21:04:47.088Z,4.10
2023-04-15T21:07:13.505Z,4.45
2023-04-15T21:09:39.884Z,4.40
2023-04-15T21:12:06.234Z,3.98
2023-04-15T21:14:32.570Z,3.92
2023-04-15T21:16:58.971Z,3.92
2023-04-15T21:19:25.360Z,3.38
2023-04-15T21:21:51.781Z,3.24
2023-04-15T21:24:18.138Z,3.38
2023-04-15T21:26:44.514Z,2.79
2023-04-15T21:29:11.871Z,2.96
2023-04-15T21:31:38.673Z,2.75
2023-04-15T21:34:05.121Z,2.34
2023-04-15T21:36:31.464Z,2.46
2023-04-15T21:38:57.818Z,2.20
2023-04-15T21:41:24.168Z,2.27
2023-04-15T21:43:50.505Z,2.37
2023-04-15T21:46:23.686Z,2.44
2023-04-15T21:48:51.562Z,2.59
2023-04-15T21:51:17.970Z,2.16
2023-04-15T21:53:44.325Z,2.39
2023-04-15T21:56:10.666Z,2.22
2023-04-15T21:58:37.018Z,1.95
2023-04-15T22:01:03.363Z,2.16
2023-04-15T22:03:29.928Z,2.34
2023-04-15T22:05:56.369Z,2.10
2023-04-15T22:08:22.786Z,2.29
2023-04-15T22:10:49.157Z,2.16
2023-04-15T22:13:15.486Z,2.00
2023-04-15T22:15:41.830Z,5.04
2023-04-15T22:18:08.312Z,5.39
2023-04-15T22:20:34.693Z,2.79
2023-04-15T22:23:01.088Z,2.52
2023-04-15T22:25:27.478Z,2.20
2023-04-15T22:27:53.864Z,2.17
2023-04-15T22:30:20.258Z,2.11
2023-04-15T22:32:46.662Z,2.03
2023-04-15T22:35:13.053Z,2.03
2023-04-15T22:37:39.406Z,2.14
2023-04-15T22:40:05.792Z,1.95
2023-04-15T22:42:32.234Z,2.30
2023-04-15T22:44:58.588Z,2.21
2023-04-15T22:47:25.035Z,2.41
2023-04-15T22:49:51.410Z,2.22
2023-04-15T22:52:29.572Z,2.14
2023-04-15T22:54:56.696Z,2.30
2023-04-15T22:57:23.120Z,2.21
2023-04-15T22:59:49.516Z,2.01
2023-04-15T23:02:16.006Z,1.97
2023-04-15T23:04:42.598Z,2.36
2023-04-15T23:07:08.980Z,2.11
2023-04-15T23:09:35.375Z,2.22
2023-04-15T23:12:01.727Z,2.46
2023-04-15T23:14:28.115Z,2.17
2023-04-15T23:16:54.511Z,2.44
2023-04-15T23:19:20.898Z,2.49
2023-04-15T23:21:47.248Z,2.19
2023-04-15T23:24:13.620Z,2.25
2023-04-15T23:26:40.002Z,2.14
2023-04-15T23:29:06.382Z,2.14
2023-04-15T23:31:32.863Z,2.27
2023-04-15T23:33:59.308Z,2.43
2023-04-15T23:36:25.654Z,2.42
2023-04-15T23:38:52.035Z,2.06
2023-04-15T23:41:18.400Z,2.16
2023-04-15T23:43:44.737Z,2.12
2023-04-15T23:46:11.156Z,2.39
2023-04-15T23:48:37.578Z,2.64
2023-04-15T23:51:03.987Z,2.71
2023-04-15T23:53:30.389Z,2.69
2023-04-15T23:55:56.764Z,2.53
2023-04-15T23:58:23.152Z,2.74
